Time;durP1;ratioP1;P1;durP2;ratioP2;P2;SDS_P1;SDS_P2;PMS_P1;PMS_P2;Temp;Humidity;BMP_temperature;BMP_pressure;BME280_temperature;BME280_humidity;BME280_pressure;Samples;Min_cycle;Max_cycle;Signal;HPM_P1;HPM_P2
2023/06/11 00:00:30;;;;;;;9.60;8.50;;;;;;;18.23;99.44;99645.56;105414;1258;73172;-69
2023/06/11 00:02:56;;;;;;;12.20;8.40;;;;;;;18.26;99.50;99647.48;105494;1254;62065;-69
2023/06/11 00:05:24;;;;;;;9.00;7.00;;;;;;;18.25;99.34;99648.57;105487;1257;60428;-72
2023/06/11 00:07:52;;;;;;;10.70;7.90;;;;;;;18.20;98.96;99647.83;105575;1260;74204;-71
2023/06/11 00:10:19;;;;;;;10.30;7.50;;;;;;;18.15;98.67;99646.92;105580;1259;71231;-73
2023/06/11 00:12:46;;;;;;;8.70;7.60;;;;;;;18.09;98.48;99648.01;105541;1254;72380;-72
2023/06/11 00:15:13;;;;;;;9.80;7.40;;;;;;;18.03;98.73;99645.77;105445;1254;62057;-71
2023/06/11 00:17:41;;;;;;;9.60;7.70;;;;;;;18.00;98.59;99645.52;105531;1260;60568;-72
2023/06/11 00:20:11;;;;;;;9.80;7.10;;;;;;;17.97;98.40;99645.91;105356;1260;73379;-70
2023/06/11 00:22:38;;;;;;;11.00;7.70;;;;;;;17.94;98.41;99647.09;106160;1254;71341;-71
2023/06/11 00:25:07;;;;;;;10.10;7.10;;;;;;;17.90;97.84;99649.52;106434;1255;71970;-69
2023/06/11 00:27:36;;;;;;;11.20;8.00;;;;;;;17.85;97.66;99652.16;106428;1254;64072;-72
2023/06/11 00:30:04;;;;;;;13.40;7.00;;;;;;;17.79;97.56;99655.64;105646;1254;60344;-72
2023/06/11 00:32:35;;;;;;;8.20;7.30;;;;;;;17.77;97.32;99656.49;105431;1254;74400;-71
2023/06/11 00:35:07;;;;;;;10.60;7.70;;;;;;;17.74;97.36;99655.96;105793;1259;69113;-70
2023/06/11 00:37:35;;;;;;;9.30;7.80;;;;;;;17.71;97.42;99655.13;105676;1254;74666;-71
2023/06/11 00:40:02;;;;;;;10.00;6.60;;;;;;;17.65;96.53;99654.78;105506;1258;61773;-69
2023/06/11 00:42:30;;;;;;;8.40;6.60;;;;;;;17.55;96.88;99653.20;105424;1254;60521;-69
2023/06/11 00:44:56;;;;;;;8.70;7.50;;;;;;;17.47;96.80;99658.65;105355;1259;71884;-69
2023/06/11 00:47:23;;;;;;;7.80;6.30;;;;;;;17.41;96.35;99651.34;105443;1254;70302;-72
2023/06/11 00:49:51;;;;;;;9.20;6.50;;;;;;;17.36;95.97;99650.29;105421;1256;73277;-73
2023/06/11 00:52:19;;;;;;;11.70;6.00;;;;;;;17.28;96.16;99652.34;105311;1258;62339;-74
2023/06/11 00:54:49;;;;;;;7.90;6.40;;;;;;;17.24;96.18;99654.14;105479;1254;60466;-73
2023/06/11 00:57:17;;;;;;;6.90;5.90;;;;;;;17.20;96.05;99653.05;105616;1254;74385;-71
2023/06/11 00:59:48;;;;;;;10.60;5.70;;;;;;;17.12;95.72;99652.98;105612;1254;70898;-72
2023/06/11 01:02:21;;;;;;;10.00;6.30;;;;;;;17.05;95.46;99655.21;105671;1254;72926;-73
2023/06/11 01:04:51;;;;;;;6.80;6.20;;;;;;;16.99;95.24;99653.86;105603;1259;61905;-71
2023/06/11 01:07:18;;;;;;;7.20;5.80;;;;;;;16.95;95.34;99661.66;105509;1257;60559;-70
2023/06/11 01:09:46;;;;;;;7.50;5.60;;;;;;;16.92;95.32;99667.64;105352;1254;74279;-70
2023/06/11 01:12:13;;;;;;;8.20;5.90;;;;;;;16.88;94.75;99674.55;105225;1261;70648;-69
2023/06/11 01:14:42;;;;;;;7.10;6.30;;;;;;;16.85;94.87;99675.59;105427;1254;72195;-70
2023/06/11 01:17:15;;;;;;;8.70;5.40;;;;;;;16.84;94.66;99677.63;105440;1256;60757;-69
2023/06/11 01:20:12;;;;;;;7.80;5.90;;;;;;;16.81;94.78;99676.73;105496;1259;60431;-72
2023/06/11 01:22:55;;;;;;;9.10;5.50;;;;;;;16.80;94.85;99677.80;105447;1260;73828;-69
2023/06/11 01:25:48;;;;;;;11.10;5.70;;;;;;;16.78;94.76;99679.88;105340;1259;69337;-71
2023/06/11 01:28:19;;;;;;;7.90;5.50;;;;;;;16.75;94.51;99682.52;105562;1254;71486;-72
2023/06/11 01:30:50;;;;;;;10.10;6.30;;;;;;;16.72;94.19;99684.18;105317;1256;60447;-72
2023/06/11 01:33:18;;;;;;;8.40;5.70;;;;;;;16.68;94.08;99681.83;105298;1254;60543;-70
2023/06/11 01:35:48;;;;;;;5.50;4.90;;;;;;;16.63;94.03;99688.81;105404;1254;74174;-71
2023/06/11 01:38:21;;;;;;;9.30;5.60;;;;;;;16.60;94.31;99690.09;105610;1258;70488;-72
2023/06/11 01:40:50;;;;;;;7.70;6.50;;;;;;;16.58;94.11;99692.03;105223;1257;72603;-72
2023/06/11 01:43:16;;;;;;;8.80;5.60;;;;;;;16.58;94.09;99697.23;105277;1257;61664;-70
2023/06/11 01:45:44;;;;;;;6.10;5.50;;;;;;;16.54;93.88;99700.20;105450;1254;60428;-72
2023/06/11 01:48:11;;;;;;;6.80;5.60;;;;;;;16.52;93.77;99708.80;105384;1254;74090;-71
2023/06/11 01:50:39;;;;;;;6.10;5.20;;;;;;;16.51;93.97;99707.06;105463;1259;70756;-72
2023/06/11 01:53:07;;;;;;;6.20;5.60;;;;;;;16.52;93.63;99707.18;105399;1254;72110;-73
2023/06/11 01:55:33;;;;;;;7.00;5.30;;;;;;;16.49;93.54;99711.10;105261;1263;62011;-74
2023/06/11 01:58:01;;;;;;;6.70;5.90;;;;;;;16.48;93.01;99711.02;105135;1258;610719;-70
2023/06/11 02:02:20;;;;;;;11.40;5.50;;;;;;;16.46;92.29;99716.55;102440;1292;601099;-70
2023/06/11 02:04:48;;;;;;;7.80;5.70;;;;;;;16.40;92.45;99723.41;104489;1272;60730;-72
2023/06/11 02:07:15;;;;;;;7.20;5.30;;;;;;;16.37;92.87;99721.67;104754;1269;59213;-70
2023/06/11 02:09:43;;;;;;;7.40;5.40;;;;;;;16.33;92.87;99722.01;104560;1271;72131;-72
2023/06/11 02:12:10;;;;;;;7.30;5.50;;;;;;;16.30;92.93;99720.64;104611;1272;69457;-71
2023/06/11 02:14:37;;;;;;;7.40;5.80;;;;;;;16.26;92.80;99723.77;104662;1272;71379;-71
2023/06/11 02:17:05;;;;;;;6.50;5.30;;;;;;;16.26;92.33;99723.53;104952;1257;246254;-71
2023/06/11 02:19:34;;;;;;;7.30;5.50;;;;;;;16.24;92.63;99724.52;105347;1264;59302;-69
2023/06/11 02:22:02;;;;;;;7.80;5.80;;;;;;;16.23;92.37;99724.44;105153;1256;71030;-69
2023/06/11 02:24:30;;;;;;;8.40;5.30;;;;;;;16.21;92.35;99723.39;105244;1258;70005;-70
2023/06/11 02:26:58;;;;;;;6.10;5.40;;;;;;;16.20;92.11;99722.36;105290;1262;72693;-70
2023/06/11 02:29:25;;;;;;;5.70;5.00;;;;;;;16.17;92.03;99722.79;105281;1262;59689;-68
2023/06/11 02:31:53;;;;;;;6.30;5.20;;;;;;;16.15;91.75;99721.23;105056;1262;59569;-70
2023/06/11 02:34:20;;;;;;;8.50;5.90;;;;;;;16.11;91.63;99719.39;105151;1256;72248;-70
2023/06/11 02:36:48;;;;;;;7.20;5.40;;;;;;;16.06;91.80;99724.58;104977;1264;68992;-70
2023/06/11 02:39:15;;;;;;;5.70;5.10;;;;;;;16.06;91.74;99727.59;105212;1262;72745;-68
2023/06/11 02:41:43;;;;;;;6.00;4.90;;;;;;;16.01;91.62;99733.93;105221;1260;59617;-72
2023/06/11 02:44:10;;;;;;;6.80;5.30;;;;;;;15.99;91.80;99734.59;105184;1262;60058;-71
2023/06/11 02:46:38;;;;;;;6.90;5.30;;;;;;;16.00;91.74;99737.52;105163;1257;73766;-70
2023/06/11 02:49:05;;;;;;;6.80;5.10;;;;;;;15.99;91.45;99739.98;105175;1257;70160;-70
2023/06/11 02:51:33;;;;;;;7.70;5.10;;;;;;;15.97;90.73;99737.02;105093;1258;72753;-70
2023/06/11 02:54:02;;;;;;;5.30;4.40;;;;;;;15.93;90.81;99737.71;105252;1257;60262;-70
2023/06/11 02:56:30;;;;;;;8.40;5.00;;;;;;;15.89;90.86;99737.50;105183;1262;59672;-70
2023/06/11 02:58:57;;;;;;;6.20;4.40;;;;;;;15.86;90.87;99736.66;105297;1257;73041;-69
2023/06/11 03:01:25;;;;;;;5.40;4.40;;;;;;;15.83;91.02;99734.56;105213;1259;69903;-68
2023/06/11 03:03:53;;;;;;;7.50;5.00;;;;;;;15.81;91.14;99731.22;105385;1260;72490;-69
2023/06/11 03:06:24;;;;;;;6.70;4.50;;;;;;;15.79;90.53;99732.78;105443;1261;59612;-69
2023/06/11 03:08:53;;;;;;;7.70;4.60;;;;;;;15.73;90.43;99734.60;105384;1262;59787;-70
2023/06/11 03:11:20;;;;;;;7.10;4.70;;;;;;;15.71;90.79;99734.28;105741;1259;71858;-70
2023/06/11 03:13:48;;;;;;;6.30;4.70;;;;;;;15.68;90.74;99735.20;105595;1256;68581;-70
2023/06/11 03:16:15;;;;;;;6.60;4.50;;;;;;;15.65;90.39;99738.48;105428;1254;72698;-70
2023/06/11 03:18:46;;;;;;;8.20;4.90;;;;;;;15.63;90.29;99741.81;105394;1254;61769;-71
2023/06/11 03:21:13;;;;;;;6.10;4.50;;;;;;;15.62;90.64;99740.90;105822;1253;60540;-69
2023/06/11 03:23:41;;;;;;;6.80;4.60;;;;;;;15.59;90.70;99745.70;105554;1253;72187;-71
2023/06/11 03:26:10;;;;;;;5.90;4.40;;;;;;;15.59;90.77;99743.27;105566;1253;69350;-71
2023/06/11 03:28:42;;;;;;;7.80;4.70;;;;;;;15.61;90.49;99745.95;105374;1254;71238;-72
2023/06/11 03:31:10;;;;;;;5.50;4.40;;;;;;;15.60;90.73;99745.33;105370;1257;60018;-71
2023/06/11 03:33:38;;;;;;;6.70;4.20;;;;;;;15.52;90.48;99745.10;105350;1260;59642;-70
2023/06/11 03:36:05;;;;;;;5.10;4.60;;;;;;;15.51;90.54;99739.00;105287;1260;72581;-70
2023/06/11 03:38:33;;;;;;;6.20;4.30;;;;;;;15.52;89.62;99744.91;105303;1258;69322;-68
2023/06/11 03:41:01;;;;;;;11.10;4.40;;;;;;;15.48;90.18;99739.86;105582;1253;72492;-71
2023/06/11 03:43:31;;;;;;;8.50;4.30;;;;;;;15.44;90.20;99743.91;105627;1253;60294;-70
2023/06/11 03:45:58;;;;;;;6.40;3.70;;;;;;;15.40;90.06;99743.69;105356;1261;59794;-69
2023/06/11 03:48:26;;;;;;;5.00;3.90;;;;;;;15.40;89.82;99743.52;105369;1258;73115;-71
2023/06/11 03:50:54;;;;;;;6.50;4.80;;;;;;;15.39;90.18;99746.12;105626;1259;68728;-71
2023/06/11 03:53:22;;;;;;;6.20;3.70;;;;;;;15.42;90.45;99749.09;105468;1258;71458;-73
2023/06/11 03:55:49;;;;;;;7.20;4.20;;;;;;;15.44;90.33;99746.01;105346;1253;60274;-69
2023/06/11 03:58:17;;;;;;;6.70;4.30;;;;;;;15.45;89.93;99745.77;105289;1253;62499;-69
2023/06/11 04:00:44;;;;;;;6.60;4.30;;;;;;;15.47;90.18;99746.81;105450;1253;71745;-68
2023/06/11 04:03:12;;;;;;;4.60;4.00;;;;;;;15.48;89.88;99748.75;105511;1253;69047;-68
2023/06/11 04:05:41;;;;;;;5.20;4.00;;;;;;;15.49;90.18;99750.53;105643;1259;71330;-70
2023/06/11 04:08:09;;;;;;;5.90;4.10;;;;;;;15.47;90.09;99752.79;105566;1256;59740;-70
2023/06/11 04:10:37;;;;;;;8.90;5.10;;;;;;;15.47;90.11;99750.94;105523;1254;59678;-70
2023/06/11 04:13:05;;;;;;;7.40;4.20;;;;;;;15.48;89.99;99747.89;105344;1254;71594;-70
2023/06/11 04:15:32;;;;;;;5.90;4.00;;;;;;;15.49;90.13;99743.37;105361;1258;69039;-69
2023/06/11 04:18:04;;;;;;;6.00;4.50;;;;;;;15.43;88.96;99742.93;105418;1253;71381;-71
2023/06/11 04:20:32;;;;;;;6.30;3.70;;;;;;;15.38;88.98;99744.63;105633;1258;60354;-69
2023/06/11 04:23:00;;;;;;;7.10;4.20;;;;;;;15.36;89.44;99742.77;105543;1254;60785;-70
2023/06/11 04:25:31;;;;;;;5.70;4.50;;;;;;;15.33;89.61;99745.60;105626;1257;71599;-71
2023/06/11 04:28:00;;;;;;;5.80;3.40;;;;;;;15.28;89.38;99747.55;105371;1257;70631;-71
2023/06/11 04:30:28;;;;;;;6.10;4.20;;;;;;;15.26;89.51;99745.55;105719;1254;71539;-71
2023/06/11 04:32:56;;;;;;;7.50;4.00;;;;;;;15.25;89.11;99743.66;105404;1254;60632;-74
2023/06/11 04:35:26;;;;;;;3.90;3.50;;;;;;;15.20;89.02;99744.33;105684;1257;59613;-71
2023/06/11 04:37:55;;;;;;;9.90;4.10;;;;;;;15.19;88.70;99745.00;105561;1257;71854;-73
2023/06/11 04:40:25;;;;;;;5.80;4.20;;;;;;;15.17;88.72;99752.56;105583;1253;70281;-71
2023/06/11 04:42:54;;;;;;;7.30;4.10;;;;;;;15.12;88.87;99753.86;105598;1259;70308;-70
2023/06/11 04:45:22;;;;;;;7.00;3.60;;;;;;;15.13;89.08;99761.77;105675;1259;62754;-69
2023/06/11 04:47:50;;;;;;;5.80;3.50;;;;;;;15.21;88.95;99760.11;105577;1254;59557;-70
2023/06/11 04:50:20;;;;;;;5.50;3.50;;;;;;;15.23;88.64;99765.05;105642;1253;73130;-70
2023/06/11 04:52:52;;;;;;;6.40;4.30;;;;;;;15.15;88.21;99764.36;105689;1259;68935;-70
2023/06/11 04:55:24;;;;;;;6.50;3.20;;;;;;;15.13;88.37;99771.93;105549;1253;71469;-71
2023/06/11 04:57:54;;;;;;;9.00;4.10;;;;;;;15.16;88.11;99775.18;105463;1260;59817;-70
2023/06/11 05:00:25;;;;;;;4.10;3.70;;;;;;;15.14;87.91;99779.84;105660;1259;59562;-72
2023/06/11 05:02:53;;;;;;;8.60;4.00;;;;;;;15.13;87.90;99778.52;105434;1254;73168;-72
2023/06/11 05:05:21;;;;;;;7.50;3.60;;;;;;;15.16;87.59;99781.98;105538;1259;69160;-70
2023/06/11 05:07:49;;;;;;;5.60;3.70;;;;;;;15.10;86.74;99779.28;105291;1263;72710;-72
2023/06/11 05:10:18;;;;;;;5.80;3.30;;;;;;;15.08;86.74;99785.86;105462;1258;60142;-72
2023/06/11 05:12:46;;;;;;;6.30;3.90;;;;;;;15.09;86.75;99787.63;105666;1259;60377;-72
2023/06/11 05:15:13;;;;;;;4.30;3.70;;;;;;;15.05;86.47;99795.27;105618;1259;72978;-72
2023/06/11 05:17:41;;;;;;;5.30;3.50;;;;;;;15.00;86.62;99796.79;105559;1256;68397;-72
2023/06/11 05:20:10;;;;;;;6.20;3.40;;;;;;;15.02;86.74;99798.54;105662;1257;74022;-71
2023/06/11 05:22:39;;;;;;;6.10;3.50;;;;;;;14.98;86.81;99798.14;105676;1255;60194;-73
2023/06/11 05:25:09;;;;;;;6.60;3.70;;;;;;;14.94;86.67;99796.71;105708;1259;60321;-71
2023/06/11 05:27:37;;;;;;;7.20;3.80;;;;;;;14.93;86.29;99804.64;105458;1260;73143;-70
2023/06/11 05:30:06;;;;;;;4.60;3.70;;;;;;;14.92;86.36;99804.43;105487;1258;69668;-72
2023/06/11 05:32:36;;;;;;;8.50;3.90;;;;;;;14.85;86.21;99803.52;105367;1260;71992;-71
2023/06/11 05:35:05;;;;;;;5.20;3.30;;;;;;;14.81;86.30;99805.27;105769;1254;62414;-75
2023/06/11 05:37:34;;;;;;;5.00;3.50;;;;;;;14.85;86.99;99806.68;106050;1257;59999;-74
2023/06/11 05:40:02;;;;;;;7.30;3.70;;;;;;;14.82;87.79;99811.80;106164;1258;71340;-75
2023/06/11 05:42:30;;;;;;;6.00;3.30;;;;;;;14.76;87.28;99816.65;106180;1260;68948;-72
2023/06/11 05:44:58;;;;;;;5.60;3.20;;;;;;;14.84;87.67;99817.30;106139;1262;71393;-74
2023/06/11 05:47:26;;;;;;;4.70;3.50;;;;;;;14.87;87.81;99827.03;106125;1253;60063;-72
2023/06/11 05:49:55;;;;;;;6.00;3.70;;;;;;;14.82;87.71;99825.10;106410;1259;60015;-73
2023/06/11 05:52:23;;;;;;;5.70;3.20;;;;;;;14.79;87.12;99830.01;106802;1259;71807;-74
2023/06/11 05:54:51;;;;;;;5.70;3.40;;;;;;;14.84;86.82;99830.91;107103;1259;69473;-71
2023/06/11 05:57:21;;;;;;;6.70;3.50;;;;;;;14.84;86.21;99830.41;107735;1254;71527;-72
2023/06/11 05:59:50;;;;;;;4.70;2.60;;;;;;;14.80;85.29;99830.09;107283;1253;60155;-73
2023/06/11 06:02:18;;;;;;;7.20;3.20;;;;;;;14.82;85.13;99826.82;107511;1254;60211;-72
2023/06/11 06:04:48;;;;;;;5.20;2.90;;;;;;;14.74;84.34;99826.97;107304;1253;71732;-73
2023/06/11 06:07:16;;;;;;;4.40;2.90;;;;;;;14.70;84.53;99830.30;107848;1257;68717;-71
2023/06/11 06:09:43;;;;;;;7.00;3.00;;;;;;;14.69;84.13;99831.23;107830;1252;70815;-72
2023/06/11 06:12:11;;;;;;;5.80;3.30;;;;;;;14.66;84.36;99827.30;107542;1257;60437;-73
2023/06/11 06:14:39;;;;;;;3.80;2.60;;;;;;;14.70;84.62;99825.54;107516;1257;60819;-73
2023/06/11 06:17:07;;;;;;;4.70;2.90;;;;;;;14.82;85.85;99828.76;107117;1253;73007;-74
2023/06/11 06:19:37;;;;;;;5.40;3.10;;;;;;;14.82;86.14;99829.54;107491;1254;68928;-73
2023/06/11 06:22:05;;;;;;;8.00;2.60;;;;;;;14.78;85.59;99831.96;107246;1254;71496;-73
2023/06/11 06:24:33;;;;;;;5.20;2.80;;;;;;;14.80;85.98;99835.20;106843;1257;60394;-72
2023/06/11 06:27:00;;;;;;;4.50;2.80;;;;;;;14.77;86.02;99829.73;107263;1254;60254;-74
2023/06/11 06:29:32;;;;;;;4.00;2.60;;;;;;;14.67;85.39;99836.66;106743;1260;72581;-73
2023/06/11 06:32:00;;;;;;;4.90;2.80;;;;;;;14.67;84.93;99836.08;107179;1252;69285;-74
2023/06/11 06:34:29;;;;;;;7.40;2.90;;;;;;;14.63;84.99;99841.63;107533;1255;71052;-74
2023/06/11 06:36:57;;;;;;;4.40;2.30;;;;;;;14.52;85.26;99841.27;107511;1254;60436;-74
2023/06/11 06:39:25;;;;;;;4.30;2.30;;;;;;;14.49;85.36;99846.48;107788;1258;60423;-73
2023/06/11 06:41:53;;;;;;;3.70;2.40;;;;;;;14.42;85.39;99848.19;107017;1254;76051;-74
2023/06/11 06:44:23;;;;;;;4.30;2.80;;;;;;;14.34;85.38;99847.99;107257;1257;73139;-72
2023/06/11 06:46:53;;;;;;;4.00;2.60;;;;;;;14.33;84.79;99847.20;107353;1254;72712;-73
2023/06/11 06:49:22;;;;;;;6.50;2.30;;;;;;;14.24;84.04;99854.62;107611;1254;60515;-73
2023/06/11 06:51:49;;;;;;;7.80;2.90;;;;;;;14.13;84.22;99861.99;107776;1257;60565;-72
2023/06/11 06:54:17;;;;;;;4.80;2.30;;;;;;;14.14;84.92;99860.98;109113;1252;72761;-73
2023/06/11 06:56:45;;;;;;;4.40;2.60;;;;;;;14.14;85.15;99856.63;108985;1254;69329;-73
2023/06/11 06:59:12;;;;;;;4.10;2.20;;;;;;;14.11;85.15;99865.76;109098;1253;71920;-74
2023/06/11 07:01:41;;;;;;;6.90;2.40;;;;;;;14.14;85.31;99869.56;109126;1253;61043;-73
2023/06/11 07:04:08;;;;;;;4.10;2.30;;;;;;;14.08;84.74;99870.31;109089;1253;59118;-73
2023/06/11 07:06:36;;;;;;;7.70;2.40;;;;;;;14.04;85.35;99870.76;109169;1254;72840;-72
2023/06/11 07:09:04;;;;;;;4.30;2.20;;;;;;;14.08;85.20;99870.31;109258;1254;69219;-71
2023/06/11 07:11:32;;;;;;;4.60;2.60;;;;;;;14.04;85.39;99867.89;109274;1252;71102;-70
2023/06/11 07:14:00;;;;;;;6.60;2.70;;;;;;;13.97;85.66;99870.23;108488;1253;60382;-73
2023/06/11 07:16:28;;;;;;;2.70;2.30;;;;;;;13.96;85.36;99866.97;108876;1254;58783;-72
2023/06/11 07:18:59;;;;;;;4.10;2.30;;;;;;;14.02;85.34;99865.89;108817;1253;72671;-72
2023/06/11 07:21:28;;;;;;;6.30;2.40;;;;;;;13.97;85.23;99864.61;109038;1253;69131;-72
2023/06/11 07:23:58;;;;;;;5.10;2.40;;;;;;;13.89;85.05;99867.41;108944;1253;71458;-72
2023/06/11 07:26:26;;;;;;;8.30;3.30;;;;;;;13.88;84.82;99865.15;108922;1252;60513;-72
2023/06/11 07:28:55;;;;;;;6.10;2.80;;;;;;;13.82;84.16;99868.61;109012;1252;60259;-72
2023/06/11 07:33:36;;;;;;;5.20;2.40;;;;;;;13.72;84.29;99868.27;105568;1292;600060;-73
2023/06/11 07:36:03;;;;;;;3.50;2.40;;;;;;;13.77;84.95;99866.20;109043;1255;59133;-72
2023/06/11 07:38:32;;;;;;;3.60;2.50;;;;;;;13.77;84.76;99873.01;108879;1254;59028;-74
2023/06/11 07:41:01;;;;;;;3.70;1.90;;;;;;;13.71;84.45;99870.48;108939;1253;70777;-72
2023/06/11 07:43:32;;;;;;;4.50;2.10;;;;;;;13.74;84.05;99873.63;108948;1254;69156;-73
2023/06/11 07:45:59;;;;;;;2.50;1.90;;;;;;;13.72;83.86;99875.91;108676;1254;181429;-73
2023/06/11 07:48:26;;;;;;;3.50;2.10;;;;;;;13.62;83.93;99878.48;109140;1253;59118;-73
2023/06/11 07:50:53;;;;;;;2.20;1.90;;;;;;;13.58;83.54;99883.61;109162;1253;58820;-72
2023/06/11 07:53:26;;;;;;;4.00;2.20;;;;;;;13.56;84.78;99879.52;109331;1253;70944;-73
2023/06/11 07:55:56;;;;;;;5.90;2.40;;;;;;;13.47;84.61;99877.76;108792;1253;68404;-71
2023/06/11 07:58:24;;;;;;;7.60;2.40;;;;;;;13.36;84.32;99889.45;107768;1256;71822;-74
2023/06/11 08:00:52;;;;;;;2.90;1.90;;;;;;;13.30;83.63;99892.27;107310;1252;60736;-73
2023/06/11 08:03:19;;;;;;;7.40;2.20;;;;;;;13.27;83.28;99894.66;109332;1252;59044;-74
2023/06/11 08:05:46;;;;;;;5.30;2.50;;;;;;;13.23;84.03;99896.11;108915;1252;71849;-75
2023/06/11 08:08:13;;;;;;;4.10;2.20;;;;;;;13.18;84.57;99892.19;109215;1252;69344;-74
2023/06/11 08:10:41;;;;;;;3.70;2.20;;;;;;;13.17;84.65;99888.99;108911;1253;72042;-74
2023/06/11 08:13:08;;;;;;;6.70;2.50;;;;;;;13.23;84.60;99889.35;109158;1253;59535;-74
2023/06/11 08:15:35;;;;;;;4.70;2.10;;;;;;;13.23;85.01;99890.41;109030;1254;59283;-74
2023/06/11 08:18:02;;;;;;;4.10;2.00;;;;;;;13.24;85.00;99887.27;108984;1253;72105;-73
2023/06/11 08:20:29;;;;;;;3.30;2.00;;;;;;;13.27;84.62;99883.30;108699;1253;68980;-72
2023/06/11 08:22:56;;;;;;;3.30;2.20;;;;;;;13.39;84.57;99884.11;108492;1252;73184;-72
2023/06/11 08:25:22;;;;;;;5.10;2.70;;;;;;;13.43;84.52;99879.34;107460;1254;60696;-71
2023/06/11 08:27:50;;;;;;;5.00;2.60;;;;;;;13.46;84.46;99886.64;106242;1254;60655;-72
2023/06/11 08:30:17;;;;;;;4.00;2.20;;;;;;;13.50;84.17;99883.33;106199;1255;72594;-73
2023/06/11 08:32:44;;;;;;;3.40;2.00;;;;;;;13.60;83.21;99886.77;105628;1253;70531;-73
2023/06/11 08:35:11;;;;;;;4.40;2.20;;;;;;;13.65;82.46;99885.77;105686;1259;73434;-72
2023/06/11 08:37:38;;;;;;;5.50;2.20;;;;;;;13.63;82.60;99884.09;105432;1254;60183;-71
2023/06/11 08:40:08;;;;;;;4.30;2.40;;;;;;;13.63;82.26;99882.45;105889;1258;60352;-72
2023/06/11 08:42:36;;;;;;;4.50;2.10;;;;;;;13.69;81.81;99883.75;106109;1259;71690;-74
2023/06/11 08:45:03;;;;;;;2.20;1.90;;;;;;;13.69;82.14;99877.67;105487;1256;71013;-72
2023/06/11 08:47:33;;;;;;;3.50;2.90;;;;;;;13.65;82.37;99880.14;105479;1260;71449;-74
2023/06/11 08:50:02;;;;;;;4.40;2.40;;;;;;;13.62;82.56;99876.39;105962;1253;60180;-76
2023/06/11 08:52:30;;;;;;;4.10;2.50;;;;;;;13.66;82.96;99874.11;105947;1256;60383;-75
2023/06/11 08:54:59;;;;;;;2.40;2.00;;;;;;;13.67;83.10;99875.91;106368;1256;73592;-77
2023/06/11 08:57:25;;;;;;;4.30;2.60;;;;;;;13.61;83.14;99876.17;105973;1254;68589;-76
2023/06/11 08:59:52;;;;;;;2.60;2.10;;;;;;;13.58;83.02;99884.30;105881;1259;71094;-75
2023/06/11 09:02:20;;;;;;;3.70;2.40;;;;;;;13.63;82.86;99879.68;105965;1252;60132;-78
2023/06/11 09:04:47;;;;;;;4.10;2.00;;;;;;;13.60;83.12;99883.19;105923;1252;60423;-76
2023/06/11 09:07:22;;;;;;;2.40;2.00;;;;;;;13.56;83.30;99882.76;105741;1254;72850;-75
2023/06/11 09:10:08;;;;;;;4.60;1.90;;;;;;;13.56;83.21;99879.85;105663;1254;70200;-74
2023/06/11 09:12:36;;;;;;;2.90;2.20;;;;;;;13.65;83.19;99877.39;105931;1254;72662;-76
2023/06/11 09:15:06;;;;;;;2.80;2.30;;;;;;;13.61;82.34;99878.80;105965;1254;60296;-76
2023/06/11 09:17:37;;;;;;;2.80;2.40;;;;;;;13.55;82.38;99876.14;106075;1254;60154;-74
2023/06/11 09:20:06;;;;;;;4.80;2.00;;;;;;;13.54;82.32;99879.54;106207;1258;71944;-74
2023/06/11 09:22:34;;;;;;;3.20;2.50;;;;;;;13.55;82.15;99880.33;106106;1259;68852;-75
2023/06/11 09:25:09;;;;;;;3.50;1.90;;;;;;;13.50;82.63;99878.16;105827;1252;72787;-74
2023/06/11 09:27:38;;;;;;;3.10;1.90;;;;;;;13.44;82.58;99883.09;105564;1255;60295;-74
2023/06/11 09:30:10;;;;;;;2.60;1.60;;;;;;;13.41;82.58;99884.05;107592;1254;60229;-75
2023/06/11 09:32:40;;;;;;;3.00;1.80;;;;;;;13.45;82.32;99882.48;105770;1254;73666;-76
2023/06/11 09:35:09;;;;;;;4.60;2.50;;;;;;;13.40;82.03;99885.93;105766;1256;69250;-74
2023/06/11 09:37:54;;;;;;;3.10;1.90;;;;;;;13.31;82.23;99889.35;105846;1256;71753;-73
2023/06/11 09:40:23;;;;;;;4.40;1.70;;;;;;;13.18;81.92;99885.33;105666;1254;60289;-75
2023/06/11 09:42:49;;;;;;;5.30;2.00;;;;;;;13.18;82.38;99892.05;105673;1254;60115;-75
2023/06/11 09:45:20;;;;;;;5.30;2.60;;;;;;;13.17;81.83;99894.95;105481;1254;73146;-74
2023/06/11 09:47:47;;;;;;;6.30;2.20;;;;;;;13.11;82.05;99895.29;105612;1256;69654;-76
2023/06/11 09:50:18;;;;;;;4.30;1.90;;;;;;;13.09;82.19;99893.23;105662;1259;72778;-74
2023/06/11 09:52:45;;;;;;;3.70;2.00;;;;;;;13.12;81.99;99888.94;106097;1254;62067;-73
2023/06/11 09:55:12;;;;;;;6.80;2.30;;;;;;;13.15;82.07;99893.79;105793;1254;60470;-74
2023/06/11 09:57:40;;;;;;;4.00;2.10;;;;;;;13.10;82.19;99901.30;105758;1262;73043;-74
2023/06/11 10:00:11;;;;;;;4.00;2.40;;;;;;;13.07;82.05;99901.16;105673;1254;70269;-75
2023/06/11 10:02:40;;;;;;;3.90;1.80;;;;;;;13.04;81.83;99902.08;106089;1253;72405;-78
2023/06/11 10:05:07;;;;;;;3.20;2.10;;;;;;;13.05;81.64;99896.81;106168;1254;61537;-76
2023/06/11 10:07:47;;;;;;;5.50;2.60;;;;;;;13.03;81.57;99904.86;106196;1252;60599;-75
2023/06/11 10:10:17;;;;;;;2.80;2.30;;;;;;;12.98;81.96;99901.43;105775;1259;72086;-72
2023/06/11 10:12:50;;;;;;;3.60;2.00;;;;;;;12.96;81.62;99904.22;106306;1256;69422;-72
2023/06/11 10:15:18;;;;;;;2.90;1.90;;;;;;;13.00;81.66;99905.92;106091;1254;72573;-74
2023/06/11 10:17:53;;;;;;;3.10;2.30;;;;;;;13.01;81.62;99910.09;105735;1254;60526;-74
2023/06/11 10:20:35;;;;;;;3.30;2.20;;;;;;;12.99;81.50;99915.96;105787;1256;60505;-77
2023/06/11 10:23:11;;;;;;;6.00;2.50;;;;;;;13.00;81.53;99911.42;106027;1254;73085;-79
2023/06/11 10:25:42;;;;;;;3.40;2.20;;;;;;;13.08;81.43;99907.42;106011;1254;70200;-74
2023/06/11 10:28:09;;;;;;;2.40;1.90;;;;;;;13.10;81.20;99922.50;105831;1259;71301;-76
2023/06/11 10:30:36;;;;;;;4.00;2.10;;;;;;;13.06;81.37;99925.08;106044;1254;60308;-75
2023/06/11 10:33:03;;;;;;;3.60;2.50;;;;;;;13.03;81.58;99926.70;105823;1253;60402;-75
2023/06/11 10:35:32;;;;;;;2.50;1.70;;;;;;;13.03;81.48;99927.40;105734;1254;73113;-75
2023/06/11 10:38:06;;;;;;;3.30;2.10;;;;;;;13.10;81.50;99924.67;106051;1256;69266;-73
2023/06/11 10:40:35;;;;;;;5.10;2.40;;;;;;;13.05;80.71;99929.88;105709;1256;71997;-71
2023/06/11 10:43:12;;;;;;;4.00;2.10;;;;;;;12.94;80.71;99930.57;105676;1254;60400;-71
2023/06/11 10:45:39;;;;;;;2.60;1.80;;;;;;;12.88;80.78;99921.30;105671;1256;59733;-78
2023/06/11 10:48:10;;;;;;;3.80;1.90;;;;;;;12.88;80.79;99930.74;105788;1259;72055;-74
2023/06/11 10:50:37;;;;;;;5.00;2.40;;;;;;;12.84;80.70;99931.04;105927;1254;70125;-74
2023/06/11 10:53:13;;;;;;;2.60;1.90;;;;;;;12.75;81.03;99935.04;105958;1252;72550;-72
2023/06/11 10:55:43;;;;;;;2.70;2.10;;;;;;;12.72;81.26;99932.27;106160;1257;60491;-72
2023/06/11 10:58:20;;;;;;;2.90;2.10;;;;;;;12.69;81.28;99925.09;105758;1254;60178;-72
2023/06/11 11:00:48;;;;;;;2.80;2.00;;;;;;;12.75;81.21;99926.17;105398;1259;72185;-73
2023/06/11 11:03:16;;;;;;;9.30;2.50;;;;;;;12.76;80.84;99933.36;105840;1262;71059;-73
2023/06/11 11:05:43;;;;;;;4.00;2.80;;;;;;;12.71;80.95;99934.80;106020;1259;72711;-73
2023/06/11 11:08:12;;;;;;;3.10;1.90;;;;;;;12.67;81.06;99931.27;105590;1255;60100;-71
2023/06/11 11:10:41;;;;;;;2.50;2.20;;;;;;;12.67;81.02;99936.93;105974;1256;61062;-72
2023/06/11 11:13:08;;;;;;;11.00;2.60;;;;;;;12.74;80.81;99938.05;105453;1253;73098;-74
2023/06/11 11:15:36;;;;;;;3.50;2.50;;;;;;;12.70;80.50;99931.73;105840;1254;70349;-74
2023/06/11 11:18:03;;;;;;;3.80;2.40;;;;;;;12.63;80.83;99934.89;105671;1257;72640;-73
2023/06/11 11:20:31;;;;;;;4.50;2.20;;;;;;;12.59;81.01;99935.34;105421;1254;61927;-73
2023/06/11 11:22:59;;;;;;;5.90;2.70;;;;;;;12.65;81.09;99938.17;105682;1256;60038;-73
2023/06/11 11:25:33;;;;;;;3.30;2.30;;;;;;;12.70;80.66;99930.88;106198;1255;73035;-71
2023/06/11 11:28:22;;;;;;;3.90;2.20;;;;;;;12.64;80.65;99937.42;106602;1254;68590;-74
2023/06/11 11:30:49;;;;;;;4.30;2.20;;;;;;;12.59;80.74;99940.52;106047;1255;72935;-78
2023/06/11 11:33:16;;;;;;;5.60;2.00;;;;;;;12.58;80.88;99949.98;105978;1254;60917;-74
2023/06/11 11:35:50;;;;;;;3.90;2.60;;;;;;;12.66;80.79;99947.51;105541;1254;60250;-71